createdAt,value
2022-07-25T00:03:39.157Z,14.05
2022-07-25T00:08:38.842Z,13.23
2022-07-25T00:13:37.630Z,11.50
2022-07-25T00:18:37.840Z,11.68
2022-07-25T00:23:36.705Z,10.30
2022-07-25T00:28:35.778Z,11.05
2022-07-25T00:33:40.568Z,10.68
2022-07-25T00:38:41.987Z,8.88
2022-07-25T00:43:45.442Z,11.40
2022-07-25T00:48:44.732Z,8.18
2022-07-25T00:53:52.442Z,10.55
2022-07-25T00:58:52.078Z,9.68
2022-07-25T01:03:51.884Z,11.10
2022-07-25T01:08:52.747Z,8.80
2022-07-25T01:13:54.839Z,8.45
2022-07-25T01:18:54.272Z,8.30
2022-07-25T01:23:57.516Z,17.35
2022-07-25T01:28:57.189Z,16.20
2022-07-25T01:33:56.423Z,14.73
2022-07-25T01:38:56.934Z,12.30
2022-07-25T01:43:56.039Z,12.70
2022-07-25T01:48:55.396Z,10.15
2022-07-25T01:53:54.522Z,12.05
2022-07-25T01:58:54.808Z,10.70
2022-07-25T02:03:54.699Z,11.82
2022-07-25T02:08:55.764Z,12.07
2022-07-25T02:13:56.318Z,11.23
2022-07-25T02:18:57.305Z,9.90
2022-07-25T02:23:56.589Z,9.68
2022-07-25T02:28:57.725Z,14.32
2022-07-25T02:33:57.334Z,13.27
2022-07-25T02:38:57.606Z,10.35
2022-07-25T02:44:00.610Z,10.32
2022-07-25T02:49:02.801Z,11.85
2022-07-25T02:54:03.198Z,10.90
2022-07-25T02:59:07.840Z,12.75
2022-07-25T03:04:12.714Z,8.13
2022-07-25T03:09:15.421Z,10.60
2022-07-25T03:14:17.739Z,9.95
2022-07-25T03:19:17.809Z,13.50
2022-07-25T03:24:21.553Z,10.00
2022-07-25T03:29:27.679Z,10.90
2022-07-25T03:34:29.844Z,10.18
2022-07-25T03:39:30.882Z,11.85
2022-07-25T03:44:40.620Z,9.27
2022-07-25T03:49:46.929Z,12.18
2022-07-25T03:55:00.635Z,11.20
2022-07-25T04:00:12.832Z,12.07
2022-07-25T04:05:14.759Z,14.00
2022-07-25T04:10:17.103Z,15.27
2022-07-25T04:15:18.372Z,11.43
2022-07-25T04:25:19.703Z,28.50
2022-07-25T04:30:24.726Z,22.77
2022-07-25T04:35:24.235Z,24.67
2022-07-25T04:40:22.988Z,20.98
2022-07-25T04:45:23.698Z,17.42
2022-07-25T04:50:24.968Z,16.45
2022-07-25T04:55:24.187Z,15.63
2022-07-25T05:00:25.018Z,15.82
2022-07-25T05:05:23.842Z,16.95
2022-07-25T05:10:22.566Z,19.60
2022-07-25T05:15:21.513Z,18.38
2022-07-25T05:20:21.783Z,15.75
2022-07-25T05:25:20.989Z,14.75
2022-07-25T05:30:19.765Z,14.48
2022-07-25T05:35:18.560Z,16.98
2022-07-25T05:40:19.538Z,15.65
2022-07-25T05:45:18.281Z,13.68
2022-07-25T05:50:17.002Z,17.55
2022-07-25T05:55:16.080Z,18.15
2022-07-25T06:00:17.043Z,12.85
2022-07-25T06:05:15.846Z,14.65
2022-07-25T06:10:16.651Z,19.50
2022-07-25T06:15:19.763Z,16.25
2022-07-25T06:20:22.105Z,16.35
2022-07-25T06:25:20.964Z,15.00
2022-07-25T06:30:21.164Z,13.85
2022-07-25T06:35:20.324Z,11.57
2022-07-25T06:40:19.128Z,11.85
2022-07-25T06:45:17.961Z,13.93
2022-07-25T06:50:21.427Z,21.85
2022-07-25T06:55:20.441Z,20.33
2022-07-25T07:00:19.630Z,21.98
2022-07-25T07:05:20.613Z,13.07
2022-07-25T07:10:23.994Z,13.40
2022-07-25T07:15:22.839Z,13.38
2022-07-25T07:20:23.305Z,11.20
2022-07-25T07:25:24.239Z,16.65
2022-07-25T07:30:52.172Z,10.85
2022-07-25T07:35:47.744Z,9.98
2022-07-25T07:40:46.505Z,15.05
2022-07-25T07:45:45.680Z,33.50
2022-07-25T07:50:44.603Z,10.10
2022-07-25T07:55:45.486Z,13.80
2022-07-25T08:00:44.907Z,11.63
2022-07-25T08:05:45.651Z,11.23
2022-07-25T08:10:48.000Z,12.45
2022-07-25T08:15:51.889Z,12.05
2022-07-25T08:20:51.360Z,15.25
2022-07-25T08:25:59.011Z,9.25
2022-07-25T08:30:59.872Z,14.35
2022-07-25T08:35:59.794Z,8.98
2022-07-25T08:41:00.142Z,8.82
2022-07-25T08:51:01.676Z,14.10
2022-07-25T09:01:09.238Z,10.10
2022-07-25T09:06:21.886Z,9.27
2022-07-25T09:11:30.485Z,8.77
2022-07-25T09:16:33.910Z,7.90
2022-07-25T09:21:32.819Z,11.80
2022-07-25T09:26:32.987Z,9.33
2022-07-25T09:31:35.143Z,10.00
2022-07-25T09:36:35.634Z,10.27
2022-07-25T09:41:40.613Z,10.30
2022-07-25T09:46:39.534Z,9.00
2022-07-25T09:51:38.508Z,8.70
2022-07-25T10:01:41.441Z,7.90
2022-07-25T10:06:46.307Z,5.45
2022-07-25T10:12:10.153Z,8.88
2022-07-25T10:17:10.538Z,11.40
2022-07-25T10:22:15.085Z,6.68
2022-07-25T10:27:22.311Z,8.20
2022-07-25T10:32:21.405Z,11.10
2022-07-25T10:37:21.306Z,7.38
2022-07-25T10:42:26.792Z,7.00
2022-07-25T10:47:28.309Z,9.30
2022-07-25T10:52:29.923Z,7.15
2022-07-25T10:57:32.276Z,6.60
2022-07-25T11:02:32.907Z,10.80
2022-07-25T11:07:36.191Z,9.73
2022-07-25T11:12:37.558Z,9.88
2022-07-25T11:17:36.323Z,16.23
2022-07-25T11:22:35.913Z,8.82
2022-07-25T11:27:36.866Z,6.73
2022-07-25T11:32:40.481Z,7.38
2022-07-25T11:37:41.708Z,4.78
2022-07-25T11:42:44.070Z,5.95
2022-07-25T11:47:43.081Z,8.80
2022-07-25T11:52:46.063Z,16.77
2022-07-25T11:57:49.227Z,8.15
2022-07-25T12:02:49.578Z,6.65
2022-07-25T12:07:51.520Z,7.28
2022-07-25T12:12:54.799Z,10.80
2022-07-25T12:17:55.590Z,8.85
2022-07-25T12:23:00.377Z,5.00
2022-07-25T12:28:10.738Z,5.72
2022-07-25T12:33:14.913Z,7.85
2022-07-25T12:38:14.499Z,8.25
2022-07-25T12:43:14.673Z,8.13
2022-07-25T12:48:14.901Z,8.10
2022-07-25T12:53:14.655Z,6.10
2022-07-25T12:58:15.289Z,9.20
2022-07-25T13:03:15.513Z,6.60
2022-07-25T13:08:14.225Z,10.15
2022-07-25T13:13:14.789Z,6.80
2022-07-25T13:18:13.516Z,4.15
2022-07-25T13:23:13.642Z,6.13
2022-07-25T13:28:17.029Z,7.00
2022-07-25T13:33:15.767Z,6.53
2022-07-25T13:38:15.068Z,7.25
2022-07-25T13:43:16.103Z,3.78
2022-07-25T13:48:30.915Z,5.03
2022-07-25T13:53:30.930Z,8.18
2022-07-25T13:58:31.258Z,7.18
2022-07-25T14:03:30.682Z,7.32
2022-07-25T14:08:29.381Z,5.60
2022-07-25T14:13:28.079Z,6.90
2022-07-25T14:18:28.186Z,7.47
2022-07-25T14:23:30.076Z,6.28
2022-07-25T14:28:29.036Z,4.10
2022-07-25T14:33:29.244Z,7.80
2022-07-25T14:38:28.053Z,7.75
2022-07-25T14:43:26.885Z,4.35
2022-07-25T14:48:25.752Z,6.45
2022-07-25T14:53:26.017Z,5.22
2022-07-25T14:58:25.445Z,5.40
2022-07-25T15:03:24.227Z,6.75
2022-07-25T15:08:26.659Z,5.68
2022-07-25T15:13:32.938Z,5.47
2022-07-25T15:18:32.213Z,7.13
2022-07-25T15:23:32.337Z,3.95
2022-07-25T15:28:31.395Z,7.68
2022-07-25T15:33:30.665Z,4.22
2022-07-25T15:38:30.943Z,8.70
2022-07-25T15:43:31.214Z,7.75
2022-07-25T15:48:30.124Z,7.18
2022-07-25T15:53:30.445Z,7.10
2022-07-25T15:58:30.674Z,8.55
2022-07-25T16:03:29.824Z,6.63
2022-07-25T16:08:28.695Z,9.55
2022-07-25T16:13:28.228Z,9.75
2022-07-25T16:18:28.480Z,8.30
2022-07-25T16:23:28.355Z,10.68
2022-07-25T16:28:27.684Z,9.93
2022-07-25T16:33:28.195Z,5.68
2022-07-25T16:38:27.645Z,7.10
2022-07-25T16:43:31.454Z,7.68
2022-07-25T16:48:35.257Z,8.13
2022-07-25T16:53:35.893Z,9.52
2022-07-25T16:58:35.086Z,12.55
2022-07-25T17:03:35.643Z,10.00
2022-07-25T17:08:35.274Z,16.20
2022-07-25T17:13:34.171Z,10.15
2022-07-25T17:23:35.842Z,8.35
2022-07-25T17:28:38.120Z,9.40
2022-07-25T17:33:37.251Z,6.43
2022-07-25T17:38:38.168Z,10.40
2022-07-25T17:43:37.134Z,8.98
2022-07-25T17:48:36.354Z,7.20
2022-07-25T17:53:35.245Z,5.88
2022-07-25T17:58:35.655Z,9.00
2022-07-25T18:03:34.502Z,9.77
2022-07-25T18:08:35.452Z,11.27
2022-07-25T18:13:36.136Z,9.55
2022-07-25T18:18:37.467Z,10.80
2022-07-25T18:23:36.273Z,10.65
2022-07-25T18:28:36.964Z,7.75
2022-07-25T18:33:37.869Z,11.65
2022-07-25T18:38:37.342Z,7.82
2022-07-25T18:43:37.823Z,9.55
2022-07-25T18:48:37.431Z,10.35
2022-07-25T18:53:37.013Z,11.75
2022-07-25T18:58:37.759Z,13.00
2022-07-25T19:03:39.943Z,11.70
2022-07-25T19:08:39.375Z,11.60
2022-07-25T19:13:50.007Z,11.97
2022-07-25T19:18:49.781Z,10.23
2022-07-25T19:23:51.225Z,10.80
2022-07-25T19:28:51.902Z,10.23
2022-07-25T19:33:50.765Z,10.60
2022-07-25T19:38:49.736Z,14.32
2022-07-25T19:43:48.582Z,12.40
2022-07-25T19:48:48.897Z,9.20
2022-07-25T19:58:46.481Z,17.15
2022-07-25T20:03:45.431Z,11.48
2022-07-25T20:08:45.670Z,12.02
2022-07-25T20:13:44.517Z,14.93
2022-07-25T20:18:43.437Z,14.25
2022-07-25T20:23:51.814Z,14.25
2022-07-25T20:28:50.814Z,16.92
2022-07-25T20:33:50.463Z,15.55
2022-07-25T20:38:50.955Z,22.27
2022-07-25T20:48:48.326Z,14.55
2022-07-25T20:53:51.691Z,9.82
2022-07-25T20:58:53.878Z,11.43
2022-07-25T21:03:52.761Z,7.47
2022-07-25T21:08:51.628Z,9.23
2022-07-25T21:13:51.204Z,9.15
2022-07-25T21:18:51.393Z,12.40
2022-07-25T21:23:50.302Z,9.05
2022-07-25T21:28:49.107Z,8.32
2022-07-25T21:33:50.471Z,6.43
2022-07-25T21:38:50.691Z,7.30
2022-07-25T21:43:49.677Z,7.43
2022-07-25T21:49:06.020Z,8.55
2022-07-25T21:54:07.157Z,6.95
2022-07-25T21:59:06.888Z,11.00
2022-07-25T22:04:06.771Z,6.77
2022-07-25T22:09:08.208Z,8.43
2022-07-25T22:14:08.973Z,7.82
2022-07-25T22:19:08.304Z,9.13
2022-07-25T22:24:09.394Z,6.72
2022-07-25T22:34:07.384Z,6.70
2022-07-25T22:39:06.488Z,7.00
2022-07-25T22:44:07.126Z,6.68
2022-07-25T22:49:06.800Z,5.40
2022-07-25T22:54:06.440Z,6.68
2022-07-25T22:59:06.980Z,7.90
2022-07-25T23:04:06.273Z,6.40
2022-07-25T23:09:05.549Z,5.75
2022-07-25T23:14:04.640Z,9.02
2022-07-25T23:19:05.058Z,8.27
2022-07-25T23:24:04.119Z,5.70
2022-07-25T23:29:02.964Z,7.97
2022-07-25T23:34:01.823Z,6.55
2022-07-25T23:39:02.052Z,7.05
2022-07-25T23:44:00.976Z,7.33
2022-07-25T23:49:01.061Z,5.97
2022-07-25T23:54:03.652Z,8.35
2022-07-25T23:59:02.563Z,6.95
